createdAt,value
2023-05-13T00:02:20.113Z,31.67
2023-05-13T00:04:47.225Z,26.42
2023-05-13T00:07:14.299Z,28.13
2023-05-13T00:09:41.509Z,31.35
2023-05-13T00:12:08.765Z,37.30
2023-05-13T00:14:35.755Z,23.15
2023-05-13T00:17:04.860Z,21.80
2023-05-13T00:19:32.082Z,20.17
2023-05-13T00:21:59.233Z,20.13
2023-05-13T00:24:26.257Z,20.95
2023-05-13T00:26:53.659Z,26.33
2023-05-13T00:29:20.847Z,34.53
2023-05-13T00:31:47.971Z,24.63
2023-05-13T00:34:15.193Z,23.60
2023-05-13T00:36:42.247Z,23.58
2023-05-13T00:39:09.250Z,26.73
2023-05-13T00:41:36.401Z,27.42
2023-05-13T00:44:03.583Z,25.92
2023-05-13T00:46:34.315Z,26.65
2023-05-13T00:49:02.270Z,29.00
2023-05-13T00:51:29.341Z,32.15
2023-05-13T00:53:59.263Z,27.42
2023-05-13T00:56:27.211Z,27.85
2023-05-13T00:58:54.222Z,25.17
2023-05-13T01:01:49.687Z,29.40
2023-05-13T01:04:40.726Z,32.20
2023-05-13T01:07:31.285Z,29.77
2023-05-13T01:10:09.019Z,29.98
2023-05-13T01:12:41.826Z,26.83
2023-05-13T01:15:15.236Z,27.45
2023-05-13T01:18:25.414Z,29.48
2023-05-13T01:20:53.141Z,24.45
2023-05-13T01:23:20.193Z,28.00
2023-05-13T01:25:47.894Z,28.73
2023-05-13T01:28:14.968Z,27.13
2023-05-13T01:30:42.050Z,26.95
2023-05-13T01:33:10.521Z,21.90
2023-05-13T01:35:37.956Z,24.77
2023-05-13T01:38:06.532Z,29.63
2023-05-13T01:40:35.119Z,21.17
2023-05-13T01:43:02.554Z,25.55
2023-05-13T01:45:30.822Z,27.25
2023-05-13T01:47:57.942Z,27.88
2023-05-13T01:50:25.436Z,28.33
2023-05-13T01:52:52.459Z,26.70
2023-05-13T01:55:19.632Z,26.33
2023-05-13T01:57:46.676Z,27.07
2023-05-13T02:00:14.626Z,21.42
2023-05-13T02:02:41.714Z,25.88
2023-05-13T02:05:09.437Z,26.88
2023-05-13T02:07:36.675Z,21.90
2023-05-13T02:10:04.085Z,20.35
2023-05-13T02:12:31.088Z,22.80
2023-05-13T02:14:58.157Z,25.17
2023-05-13T02:17:25.329Z,22.88
2023-05-13T02:19:52.522Z,23.10
2023-05-13T02:22:19.642Z,20.40
2023-05-13T02:24:46.616Z,23.73
2023-05-13T02:31:22.804Z,25.60
2023-05-13T02:33:49.789Z,30.67
2023-05-13T02:36:16.808Z,27.90
2023-05-13T02:38:43.860Z,23.90
2023-05-13T02:41:10.849Z,22.37
2023-05-13T02:43:37.852Z,29.47
2023-05-13T02:46:04.888Z,24.47
2023-05-13T02:48:31.930Z,29.55
2023-05-13T02:50:58.954Z,30.30
2023-05-13T02:53:26.083Z,30.00
2023-05-13T02:55:54.378Z,27.02
2023-05-13T02:58:21.435Z,24.45
2023-05-13T03:00:48.431Z,27.67
2023-05-13T03:03:15.464Z,29.60
2023-05-13T03:05:42.518Z,30.43
2023-05-13T03:08:09.483Z,23.37
2023-05-13T03:10:36.505Z,22.97
2023-05-13T03:13:03.464Z,23.87
2023-05-13T03:15:30.481Z,20.58
2023-05-13T03:17:57.959Z,27.65
2023-05-13T03:20:25.043Z,22.97
2023-05-13T03:22:52.078Z,27.60
2023-05-13T03:25:19.093Z,26.00
2023-05-13T03:27:46.158Z,33.00
2023-05-13T03:30:14.284Z,24.93
2023-05-13T03:32:41.340Z,23.50
2023-05-13T03:35:08.615Z,25.83
2023-05-13T03:37:35.637Z,24.30
2023-05-13T03:40:02.757Z,24.73
2023-05-13T03:42:30.713Z,26.20
2023-05-13T03:44:57.806Z,30.55
2023-05-13T03:47:25.061Z,24.08
2023-05-13T03:49:52.048Z,24.42
2023-05-13T03:52:19.123Z,24.05
2023-05-13T03:54:46.128Z,24.60
2023-05-13T03:57:13.162Z,26.45
2023-05-13T03:59:40.235Z,28.80
2023-05-13T04:02:07.446Z,37.03
2023-05-13T04:04:34.714Z,31.52
2023-05-13T04:07:01.743Z,23.27
2023-05-13T04:09:28.819Z,27.63
2023-05-13T04:11:56.068Z,25.80
2023-05-13T04:14:23.039Z,29.48
2023-05-13T04:16:50.091Z,22.30
2023-05-13T04:19:17.422Z,31.10
2023-05-13T04:21:44.393Z,26.90
2023-05-13T04:24:11.594Z,23.58
2023-05-13T04:26:39.140Z,27.23
2023-05-13T04:29:06.175Z,24.83
2023-05-13T04:31:33.266Z,25.38
2023-05-13T04:34:00.292Z,27.30
2023-05-13T04:36:27.284Z,24.92
2023-05-13T04:38:55.463Z,23.88
2023-05-13T04:41:22.458Z,29.33
2023-05-13T04:43:49.458Z,24.38
2023-05-13T04:46:16.478Z,24.20
2023-05-13T04:48:48.135Z,27.27
2023-05-13T04:51:16.529Z,26.55
2023-05-13T04:53:43.895Z,26.63
2023-05-13T04:56:11.078Z,22.63
2023-05-13T04:58:38.061Z,29.83
2023-05-13T05:01:05.212Z,23.38
2023-05-13T05:03:32.241Z,27.05
2023-05-13T05:05:59.401Z,25.58
2023-05-13T05:08:26.453Z,26.60
2023-05-13T05:10:53.677Z,21.60
2023-05-13T05:13:20.639Z,19.95
2023-05-13T05:15:47.647Z,20.20
2023-05-13T05:18:14.777Z,24.38
2023-05-13T05:20:41.755Z,19.23
2023-05-13T05:23:10.540Z,20.63
2023-05-13T05:25:37.596Z,23.67
2023-05-13T05:28:07.876Z,22.65
2023-05-13T05:30:39.693Z,17.60
2023-05-13T05:33:08.303Z,19.92
2023-05-13T05:35:38.472Z,18.90
2023-05-13T05:38:07.172Z,22.23
2023-05-13T05:40:45.627Z,21.75
2023-05-13T05:43:12.888Z,16.85
2023-05-13T05:45:40.554Z,20.42
2023-05-13T05:48:07.845Z,18.10
2023-05-13T05:50:35.557Z,21.17
2023-05-13T05:53:03.021Z,18.25
2023-05-13T05:55:31.810Z,24.10
2023-05-13T05:58:03.987Z,17.42
2023-05-13T06:00:31.378Z,20.05
2023-05-13T06:02:58.830Z,21.50
2023-05-13T06:05:26.026Z,16.50
2023-05-13T06:07:53.039Z,16.30
2023-05-13T06:10:20.161Z,23.73
2023-05-13T06:12:47.290Z,16.85
2023-05-13T06:15:14.370Z,19.85
2023-05-13T06:17:41.420Z,15.75
2023-05-13T06:20:08.976Z,21.67
2023-05-13T06:22:36.013Z,20.45
2023-05-13T06:25:03.218Z,15.57
2023-05-13T06:27:30.391Z,22.75
2023-05-13T06:29:57.554Z,18.65
2023-05-13T06:32:24.662Z,20.95
2023-05-13T06:34:53.960Z,17.77
2023-05-13T06:37:22.794Z,23.00
2023-05-13T06:39:50.316Z,17.83
2023-05-13T06:42:17.306Z,19.05
2023-05-13T06:44:44.294Z,20.08
2023-05-13T06:47:16.093Z,19.02
2023-05-13T06:49:43.564Z,13.93
2023-05-13T06:52:11.294Z,15.60
2023-05-13T06:54:38.443Z,14.10
2023-05-13T06:57:07.417Z,14.70
2023-05-13T06:59:35.716Z,15.25
2023-05-13T07:02:02.716Z,16.10
2023-05-13T07:04:30.398Z,18.20
2023-05-13T07:06:57.857Z,18.90
2023-05-13T07:09:24.919Z,23.83
2023-05-13T07:11:52.204Z,17.92
2023-05-13T07:14:20.096Z,17.90
2023-05-13T07:16:47.165Z,17.27
2023-05-13T07:19:14.281Z,15.50
2023-05-13T07:21:41.337Z,11.52
2023-05-13T07:24:08.434Z,18.25
2023-05-13T07:26:35.499Z,22.95
2023-05-13T07:29:02.536Z,15.00
2023-05-13T07:31:30.747Z,10.40
2023-05-13T07:33:57.987Z,6.00
2023-05-13T07:36:25.064Z,8.32
2023-05-13T07:38:52.056Z,16.15
2023-05-13T07:41:19.201Z,10.10
2023-05-13T16:52:33.479Z,9.20
2023-05-13T17:14:05.688Z,5.55
2023-05-13T17:16:32.977Z,6.93
2023-05-13T17:19:00.289Z,2.88
2023-05-13T17:21:27.496Z,4.45
2023-05-13T17:23:54.510Z,4.22
2023-05-13T17:26:22.106Z,4.07
2023-05-13T17:28:49.746Z,4.97
2023-05-13T17:31:17.019Z,3.60
2023-05-13T17:33:44.356Z,5.47
2023-05-13T17:36:11.449Z,4.03
2023-05-13T17:38:38.482Z,5.22
2023-05-13T17:41:05.831Z,6.07
2023-05-13T17:43:32.993Z,4.25
2023-05-13T17:46:00.174Z,5.15
2023-05-13T17:48:27.368Z,3.53
2023-05-13T17:50:54.642Z,3.20
2023-05-13T17:53:21.977Z,5.78
2023-05-13T17:55:49.356Z,6.05
2023-05-13T17:58:16.781Z,9.40
2023-05-13T18:00:43.974Z,7.22
2023-05-13T18:03:11.059Z,8.93
2023-05-13T18:05:38.211Z,9.63
2023-05-13T18:08:05.451Z,11.00
2023-05-13T18:10:32.454Z,7.63
2023-05-13T18:12:59.500Z,6.35
2023-05-13T18:15:26.548Z,6.90
2023-05-13T18:17:53.701Z,5.90
2023-05-13T18:20:20.941Z,5.70
2023-05-13T18:22:48.052Z,6.07
2023-05-13T18:25:15.072Z,3.25
2023-05-13T18:27:42.097Z,8.55
2023-05-13T18:30:09.844Z,3.25
2023-05-13T18:32:36.820Z,7.38
2023-05-13T18:35:04.166Z,5.35
2023-05-13T18:37:31.137Z,4.57
2023-05-13T18:39:58.816Z,8.77
2023-05-13T18:42:28.568Z,4.32
2023-05-13T18:44:55.720Z,10.60
2023-05-13T18:47:22.714Z,3.95
2023-05-13T18:49:49.712Z,7.18
2023-05-13T18:52:16.788Z,7.80
2023-05-13T18:54:43.916Z,2.97
2023-05-13T18:57:11.183Z,7.75
2023-05-13T18:59:38.555Z,10.02
2023-05-13T19:02:05.951Z,14.45
2023-05-13T19:04:33.141Z,5.28
2023-05-13T19:07:01.508Z,6.28
2023-05-13T19:09:28.560Z,13.52
2023-05-13T19:11:55.569Z,10.30
2023-05-13T19:14:22.939Z,8.65
2023-05-13T19:16:50.069Z,11.43
2023-05-13T19:19:17.181Z,14.77
2023-05-13T19:21:44.224Z,7.47
2023-05-13T19:24:11.262Z,9.95
2023-05-13T19:26:38.386Z,9.10
2023-05-13T19:29:05.790Z,9.77
2023-05-13T19:31:33.146Z,8.15
2023-05-13T19:34:01.418Z,14.45
2023-05-13T19:36:28.478Z,11.15
2023-05-13T19:38:56.816Z,9.20
2023-05-13T19:41:23.852Z,10.20
2023-05-13T19:43:50.985Z,9.32
2023-05-13T19:46:18.171Z,15.40
2023-05-13T19:48:45.244Z,10.65
2023-05-13T19:51:12.207Z,12.20
2023-05-13T19:53:39.299Z,9.23
2023-05-13T19:56:06.497Z,7.50
2023-05-13T19:58:33.508Z,13.93
2023-05-13T20:01:01.169Z,11.70
2023-05-13T20:03:28.305Z,13.82
2023-05-13T20:05:55.504Z,9.73
2023-05-13T20:08:22.981Z,8.20
2023-05-13T20:10:50.028Z,12.45
2023-05-13T20:13:17.101Z,9.05
2023-05-13T20:15:44.107Z,16.50
2023-05-13T20:18:11.356Z,9.75
2023-05-13T20:20:38.441Z,10.95
2023-05-13T20:23:05.489Z,11.45
2023-05-13T20:25:32.532Z,13.30
2023-05-13T20:27:59.525Z,11.63
2023-05-13T20:30:26.552Z,9.27
2023-05-13T20:32:53.605Z,13.77
2023-05-13T20:35:20.799Z,15.57
2023-05-13T20:37:47.865Z,14.90
2023-05-13T20:40:14.861Z,15.35
2023-05-13T20:42:41.847Z,15.32
2023-05-13T20:45:09.296Z,19.67
2023-05-13T20:47:37.112Z,17.83
2023-05-13T20:50:04.416Z,22.75
2023-05-13T20:52:31.597Z,17.00
2023-05-13T20:54:59.618Z,12.43
2023-05-13T20:57:26.586Z,11.18
2023-05-13T20:59:53.622Z,10.98
2023-05-13T21:02:20.969Z,10.68
2023-05-13T21:04:47.953Z,20.05
2023-05-13T21:07:15.037Z,11.55
2023-05-13T21:09:41.997Z,13.32
2023-05-13T21:12:09.142Z,14.52
2023-05-13T21:14:36.184Z,12.23
2023-05-13T21:17:03.947Z,15.15
2023-05-13T21:19:30.993Z,13.18
2023-05-13T21:21:59.982Z,11.77
2023-05-13T21:24:26.983Z,11.07
2023-05-13T21:26:54.061Z,12.27
2023-05-13T21:29:21.027Z,11.05
2023-05-13T21:31:48.568Z,10.23
2023-05-13T21:34:15.596Z,16.40
2023-05-13T21:36:42.601Z,13.93
2023-05-13T21:39:10.960Z,8.70
2023-05-13T21:41:38.113Z,14.10
2023-05-13T21:44:05.601Z,28.67
2023-05-13T21:46:32.658Z,11.65
2023-05-13T21:49:00.549Z,13.23
2023-05-13T21:51:28.434Z,11.70
2023-05-13T21:53:55.618Z,17.25
2023-05-13T21:56:22.693Z,10.02
2023-05-13T21:58:50.636Z,12.85
2023-05-13T22:01:18.825Z,11.35
2023-05-13T22:03:45.928Z,10.80
2023-05-13T22:06:12.973Z,21.42
2023-05-13T22:08:39.999Z,15.18
2023-05-13T22:11:07.490Z,15.30
2023-05-13T22:13:34.509Z,18.83
2023-05-13T22:16:01.628Z,13.45
2023-05-13T22:18:28.758Z,16.42
2023-05-13T22:20:56.057Z,11.57
2023-05-13T22:23:23.231Z,13.73
2023-05-13T22:25:50.677Z,10.77
2023-05-13T22:28:17.658Z,10.60
2023-05-13T22:30:44.916Z,14.18
2023-05-13T22:33:11.972Z,14.77
2023-05-13T22:35:39.599Z,14.05
2023-05-13T22:38:06.764Z,12.20
2023-05-13T22:40:33.792Z,11.43
2023-05-13T22:43:00.893Z,9.40
2023-05-13T22:45:28.138Z,12.27
2023-05-13T22:47:56.042Z,11.35
2023-05-13T22:50:24.654Z,12.90
2023-05-13T22:52:51.994Z,12.43
2023-05-13T22:55:19.092Z,12.30
2023-05-13T22:57:46.299Z,11.75
2023-05-13T23:00:13.989Z,15.27
2023-05-13T23:02:41.148Z,12.30
2023-05-13T23:05:08.465Z,11.55
2023-05-13T23:07:35.751Z,13.13
2023-05-13T23:10:02.920Z,13.13
2023-05-13T23:12:29.895Z,13.60
2023-05-13T23:14:57.006Z,12.70
2023-05-13T23:17:24.063Z,17.23
2023-05-13T23:19:51.262Z,15.15
2023-05-13T23:22:18.334Z,15.52
2023-05-13T23:24:45.308Z,23.02
2023-05-13T23:27:12.422Z,26.70
2023-05-13T23:29:39.454Z,30.08
2023-05-13T23:32:07.152Z,30.30
2023-05-13T23:34:34.479Z,25.77
2023-05-13T23:37:01.514Z,21.98
2023-05-13T23:39:28.509Z,23.15
2023-05-13T23:41:55.508Z,22.35
2023-05-13T23:44:22.597Z,25.05
2023-05-13T23:46:49.739Z,24.20
2023-05-13T23:49:17.599Z,24.17
2023-05-13T23:51:44.595Z,20.70
2023-05-13T23:54:11.695Z,24.27
2023-05-13T23:56:38.671Z,19.65
2023-05-13T23:59:05.783Z,21.23
